Time;durP1;ratioP1;P1;durP2;ratioP2;P2;SDS_P1;SDS_P2;PMS_P1;PMS_P2;Temp;Humidity;BMP_temperature;BMP_pressure;BME280_temperature;BME280_humidity;BME280_pressure;Samples;Min_cycle;Max_cycle;Signal;HPM_P1;HPM_P2
2021/12/23 00:01:08;;;;;;;26.13;16.00;;;-2.30;99.90;;;;;;4971798;28;20747;-88
2021/12/23 00:03:33;;;;;;;27.05;15.75;;;-2.30;99.90;;;;;;4987191;28;20058;-88
2021/12/23 00:05:59;;;;;;;25.23;15.52;;;-2.30;99.90;;;;;;4971461;28;20050;-88
2021/12/23 00:08:25;;;;;;;23.65;15.27;;;-2.30;99.90;;;;;;4971389;28;20573;-87
2021/12/23 00:10:51;;;;;;;25.58;15.68;;;-2.30;99.90;;;;;;4988524;28;20517;-88
2021/12/23 00:13:17;;;;;;;24.35;15.55;;;-2.20;99.90;;;;;;4986536;28;20046;-88
2021/12/23 00:16:03;;;;;;;28.17;15.70;;;-2.20;99.90;;;;;;4988975;28;20038;-88
2021/12/23 00:23:45;;;;;;;24.88;15.27;;;-2.10;99.90;;;;;;4988484;28;20049;-88
2021/12/23 00:26:11;;;;;;;27.00;15.60;;;-2.10;99.90;;;;;;4976945;28;20038;-90
2021/12/23 00:28:37;;;;;;;27.67;15.07;;;-2.10;99.90;;;;;;4990201;28;20047;-89
2021/12/23 00:31:03;;;;;;;25.38;15.93;;;-2.10;99.90;;;;;;4988865;28;20038;-88
2021/12/23 00:33:30;;;;;;;26.40;15.98;;;-2.10;99.90;;;;;;4970997;28;20038;-89
2021/12/23 00:35:57;;;;;;;26.90;16.23;;;-2.10;99.90;;;;;;4988742;28;20050;-88
2021/12/23 00:38:29;;;;;;;29.58;16.40;;;-2.00;99.90;;;;;;4987857;28;20149;-88
2021/12/23 00:40:57;;;;;;;27.30;15.93;;;-2.00;99.90;;;;;;4971776;28;20050;-88
2021/12/23 00:43:24;;;;;;;24.98;15.68;;;-1.90;99.90;;;;;;4971643;28;20038;-88
2021/12/23 00:45:50;;;;;;;27.65;17.20;;;-2.00;99.90;;;;;;4972349;28;20077;-89
2021/12/23 00:48:17;;;;;;;26.25;17.02;;;-2.00;99.90;;;;;;4971445;28;20050;-90
2021/12/23 00:50:43;;;;;;;27.45;17.75;;;-1.90;99.90;;;;;;4972140;28;20038;-89
2021/12/23 00:53:10;;;;;;;30.20;17.88;;;-1.90;99.90;;;;;;4972235;28;20058;-89
2021/12/23 00:55:37;;;;;;;31.10;18.20;;;-1.90;99.90;;;;;;4987070;28;20054;-89
2021/12/23 00:58:03;;;;;;;28.75;17.48;;;-1.90;99.90;;;;;;4972303;28;20485;-88
2021/12/23 01:00:29;;;;;;;28.55;18.20;;;-1.90;99.90;;;;;;4971198;28;20050;-88
2021/12/23 01:02:58;;;;;;;26.90;17.00;;;-1.90;99.90;;;;;;4970916;28;20046;-89
2021/12/23 01:05:25;;;;;;;31.38;17.38;;;-1.90;99.90;;;;;;4971970;28;20088;-89
2021/12/23 01:07:51;;;;;;;32.33;17.58;;;-1.90;99.90;;;;;;4987527;28;20061;-89
2021/12/23 01:10:18;;;;;;;27.52;18.15;;;-1.80;99.90;;;;;;4988051;28;20046;-89
2021/12/23 01:12:49;;;;;;;29.75;17.90;;;-1.80;99.90;;;;;;4988053;28;20057;-89
2021/12/23 01:15:37;;;;;;;31.17;17.48;;;-1.80;99.90;;;;;;4971453;28;20038;-89
2021/12/23 01:18:10;;;;;;;26.30;16.35;;;-1.70;99.90;;;;;;4987646;28;20486;-89
2021/12/23 01:20:38;;;;;;;30.00;17.40;;;-1.30;99.90;;;;;;4971887;28;20054;-89
2021/12/23 01:23:10;;;;;;;32.70;17.80;;;-1.70;99.90;;;;;;4970985;28;20073;-89
2021/12/23 01:25:37;;;;;;;28.33;18.42;;;-1.70;99.90;;;;;;4985931;28;20082;-89
2021/12/23 01:28:04;;;;;;;26.45;17.42;;;-1.70;99.90;;;;;;4955982;28;20101;-88
2021/12/23 01:30:31;;;;;;;31.05;18.42;;;-1.70;99.90;;;;;;4971488;28;20090;-88
2021/12/23 01:32:57;;;;;;;25.50;18.13;;;-1.70;99.90;;;;;;4971288;28;20082;-88
2021/12/23 01:35:24;;;;;;;33.13;18.73;;;-1.60;99.90;;;;;;4988021;28;20093;-88
2021/12/23 01:37:50;;;;;;;28.35;17.88;;;-1.60;99.90;;;;;;4955498;28;20050;-89
2021/12/23 01:40:18;;;;;;;29.27;18.77;;;-1.60;99.90;;;;;;4971774;28;20069;-89
2021/12/23 01:42:44;;;;;;;29.35;17.92;;;-1.60;99.90;;;;;;4955631;28;20054;-88
2021/12/23 01:45:13;;;;;;;31.83;19.00;;;-1.60;99.90;;;;;;4971201;28;20046;-89
2021/12/23 01:47:40;;;;;;;30.67;18.52;;;-0.60;99.90;;;;;;4970461;28;20082;-87
2021/12/23 01:50:07;;;;;;;31.25;18.42;;;-1.50;99.90;;;;;;4971139;28;20046;-89
2021/12/23 01:52:33;;;;;;;29.23;18.77;;;-1.60;99.90;;;;;;4971556;28;20450;-88
2021/12/23 01:54:59;;;;;;;30.75;18.15;;;-1.50;99.90;;;;;;4971810;28;20502;-88
2021/12/23 01:57:29;;;;;;;27.73;18.63;;;-1.50;99.90;;;;;;4970780;28;20035;-88
2021/12/23 01:59:55;;;;;;;31.13;18.58;;;-1.50;99.90;;;;;;4971709;28;20051;-89
2021/12/23 02:02:22;;;;;;;34.47;20.52;;;-1.50;99.90;;;;;;4954865;28;20046;-89
2021/12/23 02:04:48;;;;;;;29.10;18.30;;;-1.50;99.90;;;;;;4972116;28;20145;-90
2021/12/23 02:07:13;;;;;;;32.25;18.13;;;-1.50;99.90;;;;;;4971496;28;20467;-89
2021/12/23 02:09:39;;;;;;;28.33;18.45;;;-1.40;99.90;;;;;;4955730;28;20406;-88
2021/12/23 02:12:05;;;;;;;27.25;15.90;;;-1.40;99.90;;;;;;4970891;28;20047;-88
2021/12/23 02:14:31;;;;;;;30.33;17.42;;;-1.40;99.90;;;;;;4970956;28;20069;-89
2021/12/23 02:16:56;;;;;;;31.23;18.52;;;-1.40;99.90;;;;;;4971113;28;20043;-89
2021/12/23 02:19:22;;;;;;;30.60;19.33;;;-1.40;99.90;;;;;;4970450;28;20042;-89
2021/12/23 02:21:49;;;;;;;32.38;19.60;;;-1.30;99.90;;;;;;4987896;28;20051;-90
2021/12/23 02:24:17;;;;;;;41.60;19.27;;;-1.30;99.90;;;;;;4971480;28;20047;-88
2021/12/23 02:26:43;;;;;;;28.65;18.15;;;-1.30;99.90;;;;;;4970681;28;20533;-88
2021/12/23 02:29:09;;;;;;;29.27;18.48;;;-1.30;99.90;;;;;;4971426;28;20050;-89
2021/12/23 02:31:35;;;;;;;35.97;19.40;;;-1.30;99.90;;;;;;4970893;28;20047;-88
2021/12/23 02:34:01;;;;;;;30.50;19.15;;;-1.30;99.90;;;;;;4956426;28;20153;-89
2021/12/23 02:36:27;;;;;;;29.17;18.70;;;-1.30;99.90;;;;;;4969678;28;20051;-89
2021/12/23 02:38:53;;;;;;;30.38;18.55;;;-1.30;99.90;;;;;;4955240;28;20418;-88
2021/12/23 02:41:19;;;;;;;29.83;18.00;;;-1.30;99.90;;;;;;4970181;28;20043;-89
2021/12/23 02:43:45;;;;;;;29.25;18.17;;;-1.30;99.90;;;;;;4970795;28;20058;-88
2021/12/23 02:46:11;;;;;;;28.70;18.00;;;-1.30;99.90;;;;;;4986891;28;20046;-89
2021/12/23 02:48:38;;;;;;;25.90;17.20;;;-1.30;99.90;;;;;;4969306;28;20051;-88
2021/12/23 02:51:08;;;;;;;26.48;17.13;;;-1.30;99.90;;;;;;4987138;28;20403;-88
2021/12/23 02:53:33;;;;;;;28.10;17.00;;;-1.30;99.90;;;;;;4953450;28;20101;-88
2021/12/23 02:56:01;;;;;;;31.08;19.02;;;-1.30;99.90;;;;;;4970877;28;20042;-88
2021/12/23 02:58:27;;;;;;;29.35;18.20;;;-1.30;99.90;;;;;;4969278;28;20090;-87
2021/12/23 03:00:55;;;;;;;28.25;16.90;;;-1.30;99.90;;;;;;4970105;28;20089;-88
2021/12/23 03:03:21;;;;;;;26.80;18.05;;;-1.30;99.90;;;;;;4969517;28;20059;-88
2021/12/23 03:05:50;;;;;;;25.55;18.20;;;-0.20;99.90;;;;;;4954100;28;20093;-88
2021/12/23 03:08:27;;;;;;;33.58;17.60;;;-1.30;99.90;;;;;;4969727;28;20069;-88
2021/12/23 03:10:53;;;;;;;29.25;18.25;;;-1.30;99.90;;;;;;4970664;28;20039;-88
2021/12/23 03:13:18;;;;;;;32.83;17.58;;;-1.20;99.90;;;;;;4985766;28;20521;-87
2021/12/23 03:15:45;;;;;;;25.30;16.52;;;-1.30;99.90;;;;;;4969368;28;20093;-88
2021/12/23 03:18:10;;;;;;;27.08;17.13;;;-1.30;99.90;;;;;;4953131;28;20578;-88
2021/12/23 03:20:36;;;;;;;28.63;18.10;;;-1.20;99.90;;;;;;4969031;28;20146;-88
2021/12/23 03:23:02;;;;;;;27.00;17.20;;;-1.30;99.90;;;;;;4968943;28;20082;-89
2021/12/23 03:25:27;;;;;;;26.83;17.15;;;-1.30;99.90;;;;;;4985494;28;20035;-88
2021/12/23 03:27:53;;;;;;;26.95;17.40;;;-1.20;99.90;;;;;;4986226;28;20089;-88
2021/12/23 03:30:18;;;;;;;28.45;17.17;;;-1.20;99.90;;;;;;4985268;28;20085;-88
2021/12/23 03:32:44;;;;;;;32.92;18.58;;;-1.20;99.90;;;;;;4968468;28;20055;-88
2021/12/23 03:35:10;;;;;;;26.38;16.90;;;-1.20;99.90;;;;;;4986168;28;20046;-87
2021/12/23 03:37:36;;;;;;;32.67;17.48;;;-1.20;99.90;;;;;;4984568;28;20694;-88
2021/12/23 03:40:04;;;;;;;27.35;17.65;;;-1.20;99.90;;;;;;4985863;28;20042;-87
2021/12/23 03:42:30;;;;;;;29.77;18.25;;;-1.20;99.90;;;;;;4951983;28;20537;-87
2021/12/23 03:44:55;;;;;;;31.45;19.33;;;-1.20;99.90;;;;;;4953232;28;20086;-88
2021/12/23 03:47:21;;;;;;;26.40;17.33;;;-1.20;99.90;;;;;;4968332;28;20053;-88
2021/12/23 03:49:47;;;;;;;30.77;17.00;;;-1.20;99.90;;;;;;4968972;28;20462;-87
2021/12/23 03:52:13;;;;;;;31.83;18.20;;;-1.10;99.90;;;;;;4969273;28;20093;-88
2021/12/23 03:54:39;;;;;;;27.73;17.63;;;-1.10;99.90;;;;;;4967267;28;20539;-88
2021/12/23 03:57:06;;;;;;;31.23;17.48;;;-1.10;99.90;;;;;;4952766;28;20090;-89
2021/12/23 03:59:31;;;;;;;32.25;17.15;;;-1.10;99.90;;;;;;4969008;28;20062;-89
2021/12/23 04:01:57;;;;;;;28.25;17.77;;;-1.10;99.90;;;;;;4984920;28;20050;-88
2021/12/23 04:04:23;;;;;;;31.05;18.83;;;-1.10;99.90;;;;;;4984966;28;20053;-88
2021/12/23 04:06:49;;;;;;;28.08;18.40;;;-1.10;99.90;;;;;;4985791;28;20133;-88
2021/12/23 04:09:14;;;;;;;27.52;18.15;;;-1.10;99.90;;;;;;4985355;28;20043;-88
2021/12/23 04:11:40;;;;;;;28.77;18.10;;;-1.10;99.90;;;;;;4952741;28;20084;-89
2021/12/23 04:14:06;;;;;;;32.58;17.05;;;-1.10;99.90;;;;;;4969318;28;20133;-89
2021/12/23 04:16:32;;;;;;;27.98;17.30;;;-1.00;99.90;;;;;;4969530;28;20038;-88
2021/12/23 04:18:57;;;;;;;26.17;17.35;;;-1.00;99.90;;;;;;4971666;28;20042;-89
2021/12/23 04:21:23;;;;;;;29.50;18.55;;;-1.00;99.90;;;;;;4987890;28;20641;-88
2021/12/23 04:23:49;;;;;;;27.42;16.60;;;-1.00;99.90;;;;;;4989271;28;20050;-89
2021/12/23 04:26:15;;;;;;;27.75;17.13;;;-1.00;99.90;;;;;;4972022;28;20589;-89
2021/12/23 04:28:47;;;;;;;27.88;18.05;;;-1.00;99.90;;;;;;4973098;28;20069;-89
2021/12/23 04:31:16;;;;;;;27.70;16.92;;;-1.00;99.90;;;;;;4989295;28;20054;-89
2021/12/23 04:33:42;;;;;;;26.58;16.48;;;-1.00;99.90;;;;;;4971744;28;20064;-87
2021/12/23 04:36:08;;;;;;;30.00;17.83;;;-1.00;99.90;;;;;;4988396;28;20042;-89
2021/12/23 04:38:36;;;;;;;30.25;16.58;;;-1.00;99.90;;;;;;4990672;28;20046;-89
2021/12/23 04:41:02;;;;;;;27.23;17.73;;;-1.00;99.90;;;;;;4973340;28;20066;-88
2021/12/23 04:43:27;;;;;;;28.27;17.98;;;-0.90;99.90;;;;;;4971417;28;20050;-88
2021/12/23 04:45:53;;;;;;;28.30;18.05;;;-1.00;99.90;;;;;;4987895;28;20486;-88
2021/12/23 04:48:19;;;;;;;27.88;17.30;;;-1.00;99.90;;;;;;4986692;28;20053;-88
2021/12/23 04:50:44;;;;;;;28.50;18.02;;;-0.90;99.90;;;;;;4988750;28;20046;-88
2021/12/23 04:53:10;;;;;;;26.63;17.90;;;-0.90;99.90;;;;;;4971413;28;20096;-88
2021/12/23 04:55:36;;;;;;;27.13;16.92;;;-1.00;99.90;;;;;;4971027;28;20045;-88
2021/12/23 04:58:01;;;;;;;24.73;17.40;;;-0.90;99.90;;;;;;4971863;28;20058;-88
2021/12/23 05:00:27;;;;;;;27.13;16.52;;;-0.90;99.90;;;;;;4974039;28;20136;-88
2021/12/23 05:02:53;;;;;;;27.45;16.88;;;-0.90;99.90;;;;;;4991701;28;20047;-88
2021/12/23 05:05:18;;;;;;;24.15;16.20;;;-0.90;99.90;;;;;;4991652;28;20038;-89
2021/12/23 05:07:45;;;;;;;26.98;17.38;;;-0.90;99.90;;;;;;4974411;28;20490;-89
2021/12/23 05:10:12;;;;;;;27.75;17.42;;;-0.90;99.90;;;;;;4992480;28;20046;-88
2021/12/23 05:12:45;;;;;;;28.42;16.75;;;-0.90;99.90;;;;;;4990719;28;20529;-89
2021/12/23 05:15:11;;;;;;;;;;;-0.90;99.90;;;;;;4992137;28;20553;-88
2021/12/23 05:17:37;;;;;;;24.40;16.00;;;-0.80;99.90;;;;;;4990699;28;19933;-88
2021/12/23 05:20:06;;;;;;;28.27;17.58;;;-0.80;99.90;;;;;;4975703;28;20034;-88
2021/12/23 05:22:32;;;;;;;30.55;18.15;;;-0.80;99.90;;;;;;4974079;28;20046;-88
2021/12/23 05:24:58;;;;;;;29.38;17.50;;;-0.80;99.90;;;;;;4991702;28;20042;-88
2021/12/23 05:27:23;;;;;;;31.25;18.40;;;-0.80;99.90;;;;;;4971841;28;20049;-88
2021/12/23 05:29:49;;;;;;;25.85;16.08;;;-0.80;99.90;;;;;;4955634;28;20050;-88
2021/12/23 05:32:15;;;;;;;25.88;17.45;;;-0.80;99.90;;;;;;4971363;28;20097;-88
2021/12/23 05:34:41;;;;;;;27.65;18.80;;;-0.80;99.90;;;;;;4971819;28;20062;-89
2021/12/23 05:37:07;;;;;;;25.63;16.55;;;-0.80;99.90;;;;;;4971568;28;20069;-89
2021/12/23 05:39:32;;;;;;;29.90;18.60;;;-0.70;99.90;;;;;;4971907;28;20042;-88
2021/12/23 05:41:58;;;;;;;27.08;17.67;;;-0.70;99.90;;;;;;4955261;28;20051;-87
2021/12/23 05:44:24;;;;;;;28.92;17.42;;;-0.70;99.90;;;;;;4971221;28;20078;-88
2021/12/23 05:46:49;;;;;;;26.52;17.10;;;-0.70;99.90;;;;;;4971103;28;20466;-88
2021/12/23 05:49:15;;;;;;;29.10;18.17;;;-0.70;99.90;;;;;;4971173;28;20399;-87
2021/12/23 05:51:41;;;;;;;27.15;17.42;;;-0.70;99.90;;;;;;4955288;28;20046;-88
2021/12/23 05:54:07;;;;;;;28.27;17.65;;;-0.70;99.90;;;;;;4955168;28;20050;-88
2021/12/23 05:56:32;;;;;;;29.02;18.67;;;-0.70;99.90;;;;;;4954688;28;20081;-88
2021/12/23 05:58:58;;;;;;;29.85;18.00;;;-0.70;99.90;;;;;;4970710;28;20093;-88
2021/12/23 06:01:24;;;;;;;28.17;17.00;;;-0.70;99.90;;;;;;4953846;28;20400;-87
2021/12/23 06:03:50;;;;;;;29.13;17.77;;;-0.70;99.90;;;;;;4952628;28;20138;-89
2021/12/23 06:06:16;;;;;;;30.33;17.80;;;-0.60;99.90;;;;;;4953237;28;20058;-88
2021/12/23 06:08:42;;;;;;;25.60;16.80;;;-0.60;99.90;;;;;;4954096;28;20041;-88
2021/12/23 06:11:08;;;;;;;27.88;16.67;;;0.50;99.90;;;;;;4953371;28;20074;-88
2021/12/23 06:13:35;;;;;;;26.33;17.65;;;-0.60;99.90;;;;;;4953593;28;20860;-87
2021/12/23 06:16:00;;;;;;;41.33;18.80;;;-0.60;99.90;;;;;;4964987;28;20403;-87
2021/12/23 06:18:26;;;;;;;26.85;17.08;;;-0.60;99.90;;;;;;4968139;28;20055;-88
2021/12/23 06:20:52;;;;;;;28.30;16.80;;;-0.60;99.90;;;;;;4954238;28;20558;-88
2021/12/23 06:23:18;;;;;;;28.98;16.90;;;-0.60;99.90;;;;;;4969405;28;20126;-87
2021/12/23 06:25:43;;;;;;;25.98;17.23;;;-0.60;99.90;;;;;;4953612;28;20050;-88
2021/12/23 06:28:09;;;;;;;26.75;16.98;;;-0.50;99.90;;;;;;4969805;28;20490;-88
2021/12/23 06:30:35;;;;;;;29.10;17.17;;;-0.50;99.90;;;;;;4969310;28;20086;-88
2021/12/23 06:33:00;;;;;;;29.73;16.58;;;-0.50;99.90;;;;;;4952331;28;20047;-88
2021/12/23 06:35:28;;;;;;;27.58;16.92;;;-0.50;99.90;;;;;;4969754;28;20054;-88
2021/12/23 06:37:54;;;;;;;31.65;16.60;;;-0.50;99.90;;;;;;4953826;28;20055;-89
2021/12/23 06:40:21;;;;;;;26.90;16.92;;;-0.50;99.90;;;;;;4968845;28;20090;-87
2021/12/23 06:42:47;;;;;;;23.73;15.85;;;-0.50;99.90;;;;;;4953167;28;20043;-87
2021/12/23 06:45:14;;;;;;;26.90;16.48;;;-0.50;99.90;;;;;;4970855;28;20109;-88
2021/12/23 06:47:40;;;;;;;25.25;17.13;;;-0.50;99.90;;;;;;4967740;28;20439;-88
2021/12/23 06:50:08;;;;;;;27.33;16.83;;;-0.50;99.90;;;;;;4953642;28;20077;-88
2021/12/23 06:52:33;;;;;;;26.13;16.10;;;-0.50;99.90;;;;;;4968118;28;20038;-88
2021/12/23 06:54:59;;;;;;;28.30;18.10;;;-0.50;99.90;;;;;;4970016;28;20057;-87
2021/12/23 06:57:26;;;;;;;28.90;17.63;;;-0.40;99.90;;;;;;4969037;28;20078;-88
2021/12/23 06:59:52;;;;;;;28.33;18.42;;;-0.40;99.90;;;;;;4928252;28;1207148;-88
2021/12/23 07:02:18;;;;;;;27.83;17.63;;;-0.40;99.90;;;;;;4974978;28;20490;-88
2021/12/23 07:04:45;;;;;;;24.95;16.95;;;-0.40;99.90;;;;;;4989391;28;20053;-88
2021/12/23 07:07:18;;;;;;;24.95;17.33;;;-0.30;99.90;;;;;;4986171;28;20150;-90
2021/12/23 07:09:44;;;;;;;;;;;-0.30;99.90;;;;;;4971256;28;20046;-89
2021/12/23 07:12:12;;;;;;;30.17;18.73;;;-0.30;99.90;;;;;;4976400;28;19922;-89
2021/12/23 07:14:38;;;;;;;29.90;18.45;;;-0.30;99.90;;;;;;4963661;28;20042;-88
2021/12/23 07:17:06;;;;;;;29.05;18.98;;;-0.20;99.90;;;;;;4963789;28;20047;-90
2021/12/23 07:19:35;;;;;;;31.58;20.17;;;-0.30;99.90;;;;;;4961931;28;20100;-90
2021/12/23 07:22:28;;;;;;;32.95;20.30;;;0.70;99.90;;;;;;4962442;28;20046;-90
2021/12/23 07:24:54;;;;;;;30.02;19.83;;;-0.20;99.90;;;;;;4949246;28;20042;-89
2021/12/23 07:27:21;;;;;;;31.00;20.00;;;1.10;99.90;;;;;;4978364;28;20195;-88
2021/12/23 07:29:47;;;;;;;31.90;20.33;;;-0.20;99.90;;;;;;4960564;28;20569;-90
2021/12/23 07:32:13;;;;;;;31.83;20.95;;;-0.30;99.90;;;;;;4969392;28;20043;-88
2021/12/23 07:34:40;;;;;;;36.35;22.10;;;-0.30;99.90;;;;;;4953111;28;20553;-87
2021/12/23 07:37:06;;;;;;;32.42;21.48;;;-0.30;99.90;;;;;;4969470;28;20466;-89
2021/12/23 07:39:32;;;;;;;33.35;21.75;;;-0.30;99.90;;;;;;4956257;28;20042;-88
2021/12/23 07:41:58;;;;;;;35.53;21.55;;;-0.20;99.90;;;;;;4969183;28;20049;-89
2021/12/23 07:44:23;;;;;;;32.65;22.17;;;-0.20;99.90;;;;;;4958875;28;20498;-89
2021/12/23 07:46:50;;;;;;;37.88;23.17;;;-0.20;99.90;;;;;;4968807;28;20101;-85
2021/12/23 07:49:17;;;;;;;34.25;22.77;;;-0.20;99.90;;;;;;4967623;28;20142;-86
2021/12/23 07:51:44;;;;;;;32.63;21.88;;;-0.20;99.90;;;;;;4953260;28;20050;-87
2021/12/23 07:54:10;;;;;;;36.05;22.73;;;-0.20;99.90;;;;;;4969051;28;20043;-88
2021/12/23 07:56:35;;;;;;;35.65;22.45;;;-0.20;99.90;;;;;;4964325;28;20046;-87
2021/12/23 07:59:01;;;;;;;35.65;22.85;;;-0.20;99.90;;;;;;4970981;28;20053;-87
2021/12/23 08:01:27;;;;;;;38.58;23.08;;;-0.20;99.90;;;;;;4971185;28;20096;-87
2021/12/23 08:03:54;;;;;;;35.92;22.70;;;-0.20;99.90;;;;;;4971010;28;20116;-88
2021/12/23 08:06:20;;;;;;;32.15;22.10;;;-0.30;99.90;;;;;;4962943;28;20482;-86
2021/12/23 08:08:46;;;;;;;38.90;23.40;;;-0.20;99.90;;;;;;4978403;28;20053;-86
2021/12/23 08:11:11;;;;;;;35.33;22.20;;;-0.20;99.90;;;;;;4965989;28;20046;-86
2021/12/23 08:13:37;;;;;;;37.30;21.90;;;-0.30;99.90;;;;;;4970506;28;20131;-87
2021/12/23 08:16:04;;;;;;;36.67;24.45;;;-0.20;99.90;;;;;;4973769;28;20054;-86
2021/12/23 08:18:31;;;;;;;35.58;22.75;;;-0.30;99.90;;;;;;4966407;28;20043;-87
2021/12/23 08:20:58;;;;;;;35.40;22.35;;;-0.30;99.90;;;;;;4952148;28;20178;-87
2021/12/23 08:23:24;;;;;;;34.45;21.00;;;0.80;99.90;;;;;;4951907;28;20046;-88
2021/12/23 08:25:51;;;;;;;36.30;23.30;;;-0.30;99.90;;;;;;4952199;28;20089;-88
2021/12/23 08:28:17;;;;;;;34.97;22.77;;;-0.30;99.90;;;;;;4952607;28;20054;-87
2021/12/23 08:30:42;;;;;;;42.15;23.60;;;-0.30;99.90;;;;;;4968107;28;20456;-87
2021/12/23 08:33:09;;;;;;;39.70;23.27;;;0.60;99.90;;;;;;4966729;28;20050;-88
2021/12/23 08:35:36;;;;;;;34.85;22.98;;;-0.30;99.90;;;;;;4950945;28;20061;-86
2021/12/23 08:38:05;;;;;;;33.72;22.90;;;-0.30;99.90;;;;;;4966801;28;20109;-86
2021/12/23 08:40:31;;;;;;;37.58;22.98;;;-0.30;99.90;;;;;;4951713;28;20054;-88
2021/12/23 08:42:58;;;;;;;36.03;22.23;;;-0.40;99.90;;;;;;4967738;28;20047;-88
2021/12/23 08:45:27;;;;;;;38.50;23.27;;;-0.30;99.90;;;;;;4951693;28;20086;-87
2021/12/23 08:47:56;;;;;;;38.65;24.27;;;0.80;99.90;;;;;;4951693;28;20047;-88
2021/12/23 08:50:24;;;;;;;36.10;21.33;;;0.10;99.90;;;;;;4953149;28;20046;-88
2021/12/23 08:52:50;;;;;;;34.35;22.00;;;-0.40;99.90;;;;;;4967457;28;20479;-88
2021/12/23 08:55:16;;;;;;;37.05;23.73;;;-0.40;99.90;;;;;;4968282;28;20057;-86
2021/12/23 08:57:42;;;;;;;45.60;23.50;;;0.30;99.90;;;;;;4952722;28;20134;-86
2021/12/23 09:00:12;;;;;;;38.60;22.73;;;-0.10;99.90;;;;;;4986727;28;20054;-87
2021/12/23 09:02:38;;;;;;;36.17;23.17;;;-0.40;99.90;;;;;;4969873;28;20054;-86
2021/12/23 09:05:06;;;;;;;37.00;23.23;;;-0.40;99.90;;;;;;4988157;28;20510;-86
2021/12/23 09:07:33;;;;;;;37.85;22.88;;;-0.40;99.90;;;;;;4987530;28;20046;-86
2021/12/23 09:09:59;;;;;;;36.97;23.50;;;-0.40;99.90;;;;;;4987477;28;20054;-87
2021/12/23 09:12:25;;;;;;;38.35;23.98;;;-0.40;99.90;;;;;;4954520;28;20436;-86
2021/12/23 09:14:51;;;;;;;38.33;24.15;;;-0.30;99.90;;;;;;4969910;28;20038;-91
2021/12/23 09:17:17;;;;;;;37.55;23.58;;;-0.30;99.90;;;;;;4969115;28;20049;-86
2021/12/23 09:19:44;;;;;;;40.35;24.63;;;-0.30;99.90;;;;;;4971175;28;20050;-85
2021/12/23 09:22:11;;;;;;;39.88;24.73;;;-0.30;99.90;;;;;;4969960;28;20050;-86
2021/12/23 09:24:41;;;;;;;36.72;22.85;;;-0.10;99.90;;;;;;4970139;28;20460;-85
2021/12/23 09:33:00;;;;;;;46.67;25.83;;;-0.30;99.90;;;;;;4970289;28;20054;-86
2021/12/23 09:35:28;;;;;;;41.45;24.95;;;-0.30;99.90;;;;;;4942365;28;20080;-86
2021/12/23 09:37:54;;;;;;;40.47;26.02;;;-0.30;99.90;;;;;;4986626;28;20546;-86
2021/12/23 09:40:20;;;;;;;44.42;25.45;;;-0.30;99.90;;;;;;4954207;28;20137;-86
2021/12/23 09:42:47;;;;;;;38.50;25.15;;;-0.30;99.90;;;;;;4973584;28;20130;-85
2021/12/23 09:45:17;;;;;;;44.22;26.13;;;-0.30;99.90;;;;;;4971928;28;20073;-85
2021/12/23 09:47:45;;;;;;;46.22;28.25;;;-0.30;99.90;;;;;;4978300;28;20038;-86
2021/12/23 09:50:15;;;;;;;42.45;27.17;;;-0.20;99.90;;;;;;4966904;28;20073;-86
2021/12/23 09:52:46;;;;;;;;;;;-0.20;99.90;;;;;;4999947;28;20050;-86
2021/12/23 09:55:14;;;;;;;44.97;27.17;;;0.20;99.90;;;;;;4967070;28;19940;-86
2021/12/23 09:57:44;;;;;;;44.90;27.55;;;0.10;99.90;;;;;;4967212;28;20045;-86
2021/12/23 10:00:45;;;;;;;51.38;31.50;;;0.00;99.90;;;;;;4977143;28;20046;-87
2021/12/23 10:04:23;;;;;;;54.22;30.58;;;-0.20;99.90;;;;;;5009900;28;20042;-87
2021/12/23 10:06:51;;;;;;;49.08;30.02;;;-0.20;99.90;;;;;;4993711;28;20100;-88
2021/12/23 10:09:37;;;;;;;56.20;32.60;;;-0.20;99.90;;;;;;4961377;28;20054;-87
2021/12/23 10:12:59;;;;;;;53.88;31.70;;;-0.20;99.90;;;;;;4977185;28;20053;-87
2021/12/23 10:32:51;;;;;;;69.85;36.70;;;0.00;99.90;;;;;;4954202;28;20137;-90
2021/12/23 10:38:48;;;;;;;78.50;38.47;;;-0.10;99.90;;;;;;4972858;28;20046;-89
2021/12/23 10:42:32;;;;;;;75.13;39.33;;;0.00;99.90;;;;;;4958091;28;20059;-90
2021/12/23 10:45:13;;;;;;;81.63;38.72;;;-0.10;99.90;;;;;;4962975;28;20093;-91
2021/12/23 10:51:38;;;;;;;81.88;38.20;;;0.40;99.90;;;;;;4954821;28;20189;-92
2021/12/23 10:58:29;;;;;;;88.22;40.20;;;-1.00;99.90;;;;;;4968963;28;20481;-91
2021/12/23 11:01:12;;;;;;;89.28;40.72;;;-0.20;99.90;;;;;;4953160;28;20118;-91
2021/12/23 11:03:44;;;;;;;84.57;40.95;;;-0.20;99.90;;;;;;4943799;29;20113;-89
2021/12/23 11:06:35;;;;;;;86.85;39.97;;;-0.30;99.90;;;;;;4952216;28;20101;-91
2021/12/23 11:12:12;;;;;;;90.40;41.38;;;-0.10;99.90;;;;;;4936524;29;19981;-92
2021/12/23 11:30:13;;;;;;;87.03;40.33;;;0.90;99.90;;;;;;4935447;29;20055;-92
2021/12/23 11:38:12;;;;;;;93.50;41.97;;;0.00;99.90;;;;;;4935508;29;20102;-92
2021/12/23 11:45:45;;;;;;;84.38;40.47;;;0.40;99.90;;;;;;4934350;29;20131;-92
2021/12/23 11:48:13;;;;;;;95.13;43.75;;;-0.10;99.90;;;;;;4934318;29;20051;-93
2021/12/23 11:50:52;;;;;;;89.18;42.63;;;0.90;99.90;;;;;;4934892;29;20064;-92
2021/12/23 11:53:18;;;;;;;89.10;42.67;;;-0.10;99.90;;;;;;4950972;29;20142;-93
2021/12/23 11:55:45;;;;;;;101.72;44.17;;;0.00;99.90;;;;;;4950834;29;20133;-93
2021/12/23 11:58:13;;;;;;;92.28;42.75;;;1.40;99.90;;;;;;4934660;29;20078;-92
2021/12/23 12:01:00;;;;;;;97.82;44.45;;;1.00;99.90;;;;;;4934872;29;20044;-92
2021/12/23 12:03:28;;;;;;;94.30;42.80;;;0.90;99.90;;;;;;4918453;29;20051;-92
2021/12/23 12:06:24;;;;;;;102.13;44.80;;;-0.40;99.90;;;;;;4935402;29;20039;-92
2021/12/23 12:08:55;;;;;;;98.80;44.72;;;0.00;99.90;;;;;;4951048;28;20055;-93
2021/12/23 12:11:23;;;;;;;90.85;41.53;;;0.00;99.90;;;;;;4950086;29;20055;-95
2021/12/23 12:13:50;;;;;;;94.05;40.05;;;0.10;99.90;;;;;;4918847;29;20164;-93
2021/12/23 12:16:29;;;;;;;95.78;44.35;;;1.10;99.90;;;;;;4936876;28;20097;-94
2021/12/23 12:18:55;;;;;;;89.95;41.70;;;1.40;99.90;;;;;;4936973;28;20058;-94
2021/12/23 12:21:24;;;;;;;92.15;43.55;;;0.00;99.90;;;;;;4937011;28;20047;-92
2021/12/23 12:24:09;;;;;;;90.85;42.40;;;0.10;99.90;;;;;;4953318;28;20051;-92
2021/12/23 12:26:37;;;;;;;84.57;40.83;;;0.00;99.90;;;;;;4953366;28;20051;-91
2021/12/23 12:29:05;;;;;;;79.35;39.85;;;0.10;99.90;;;;;;4953507;28;20463;-91
2021/12/23 12:31:39;;;;;;;82.03;40.45;;;0.10;99.90;;;;;;4936878;28;20047;-92
2021/12/23 12:34:09;;;;;;;92.57;40.72;;;-0.10;99.90;;;;;;4953120;28;20130;-93
2021/12/23 12:36:43;;;;;;;91.07;42.45;;;0.40;99.90;;;;;;4936762;28;20050;-91
2021/12/23 12:39:09;;;;;;;98.30;43.08;;;0.10;99.90;;;;;;4937352;28;20051;-92
2021/12/23 12:41:37;;;;;;;90.05;42.80;;;1.20;99.90;;;;;;4937016;28;20105;-93
2021/12/23 12:46:56;;;;;;;86.05;42.15;;;1.50;99.90;;;;;;4953471;28;20478;-93
2021/12/23 12:49:31;;;;;;;86.93;41.13;;;0.20;99.90;;;;;;4952826;28;20126;-92
2021/12/23 12:52:16;;;;;;;96.40;42.20;;;0.20;99.90;;;;;;4952558;28;20136;-89
2021/12/23 12:54:51;;;;;;;94.50;42.35;;;0.20;99.90;;;;;;4936282;28;20047;-88
2021/12/23 12:57:24;;;;;;;85.50;41.25;;;0.30;99.90;;;;;;4935972;28;20047;-88
2021/12/23 12:59:51;;;;;;;97.68;42.78;;;0.30;99.90;;;;;;4952505;28;20054;-89
2021/12/23 13:02:29;;;;;;;99.90;43.70;;;0.30;99.90;;;;;;4951164;28;20085;-89
2021/12/23 13:05:07;;;;;;;90.40;43.65;;;0.30;99.90;;;;;;4953080;28;20050;-90
2021/12/23 13:07:37;;;;;;;99.75;43.28;;;0.30;99.90;;;;;;4952609;28;20414;-89
2021/12/23 13:10:09;;;;;;;106.35;44.95;;;0.30;99.90;;;;;;4937307;28;20039;-88
2021/12/23 13:12:46;;;;;;;93.32;42.22;;;0.30;99.90;;;;;;4951063;28;20046;-89
2021/12/23 13:15:19;;;;;;;98.35;43.47;;;1.00;99.90;;;;;;4952404;28;20051;-89
2021/12/23 13:17:49;;;;;;;98.38;43.13;;;0.30;99.90;;;;;;4936049;28;20051;-89
2021/12/23 13:20:17;;;;;;;98.72;44.83;;;0.30;99.90;;;;;;4953419;28;20372;-89
2021/12/23 13:22:44;;;;;;;96.00;43.08;;;0.30;99.90;;;;;;4940291;28;20118;-88
2021/12/23 13:25:10;;;;;;;98.97;43.90;;;0.30;99.90;;;;;;4956556;28;20562;-90
2021/12/23 13:27:40;;;;;;;95.43;43.85;;;0.30;99.90;;;;;;4939484;28;20090;-89
2021/12/23 13:30:09;;;;;;;97.07;43.53;;;0.30;99.90;;;;;;4956211;28;20487;-89
2021/12/23 13:32:34;;;;;;;100.20;45.50;;;0.30;99.90;;;;;;4939384;28;20386;-89
2021/12/23 13:35:11;;;;;;;105.90;43.72;;;0.30;99.90;;;;;;4956091;28;20246;-89
2021/12/23 13:37:42;;;;;;;98.88;44.35;;;0.30;99.90;;;;;;4940027;28;20055;-90
2021/12/23 13:40:09;;;;;;;100.38;42.92;;;0.30;99.90;;;;;;4939916;28;20138;-90
2021/12/23 13:42:39;;;;;;;102.15;45.10;;;0.30;99.90;;;;;;4939559;28;20054;-90
2021/12/23 13:45:05;;;;;;;105.45;43.97;;;0.30;99.90;;;;;;4956348;28;20043;-90
2021/12/23 13:47:34;;;;;;;108.40;44.70;;;0.30;99.90;;;;;;4954751;28;20055;-90
2021/12/23 13:50:00;;;;;;;107.18;44.97;;;1.10;99.90;;;;;;4939687;28;20042;-90